sensor_id;sensor_type;location;lat;lon;timestamp;pressure;altitude;pressure_sealevel;temperature;humidity
68822;BME280;55834;50.870;4.606;2023-05-29T00:00:44;101469.19;;;11.96;56.29
68822;BME280;55834;50.870;4.606;2023-05-29T00:03:09;101459.69;;;11.86;56.78
68822;BME280;55834;50.870;4.606;2023-05-29T00:05:35;101468.75;;;11.32;57.50
68822;BME280;55834;50.870;4.606;2023-05-29T00:08:01;101473.38;;;11.21;58.63
68822;BME280;55834;50.870;4.606;2023-05-29T00:10:26;101479.88;;;10.52;60.52
68822;BME280;55834;50.870;4.606;2023-05-29T00:12:52;101485.59;;;10.21;61.64
68822;BME280;55834;50.870;4.606;2023-05-29T00:15:17;101480.56;;;10.61;59.88
68822;BME280;55834;50.870;4.606;2023-05-29T00:17:43;101489.47;;;10.56;59.70
68822;BME280;55834;50.870;4.606;2023-05-29T00:20:08;101484.19;;;11.52;57.16
68822;BME280;55834;50.870;4.606;2023-05-29T00:22:35;101482.31;;;10.64;60.50
68822;BME280;55834;50.870;4.606;2023-05-29T00:25:05;101474.31;;;11.62;57.93
68822;BME280;55834;50.870;4.606;2023-05-29T00:27:31;101475.81;;;12.14;55.60
68822;BME280;55834;50.870;4.606;2023-05-29T00:29:58;101484.31;;;11.46;56.82
68822;BME280;55834;50.870;4.606;2023-05-29T00:32:23;101483.97;;;11.64;56.60
68822;BME280;55834;50.870;4.606;2023-05-29T00:34:48;101482.44;;;11.51;57.77
68822;BME280;55834;50.870;4.606;2023-05-29T00:37:14;101492.28;;;11.43;57.85
68822;BME280;55834;50.870;4.606;2023-05-29T00:39:40;101504.22;;;11.19;58.42
68822;BME280;55834;50.870;4.606;2023-05-29T00:42:05;101497.16;;;11.21;57.93
68822;BME280;55834;50.870;4.606;2023-05-29T00:44:30;101495.13;;;9.66;63.34
68822;BME280;55834;50.870;4.606;2023-05-29T00:46:56;101494.63;;;10.05;61.79
68822;BME280;55834;50.870;4.606;2023-05-29T00:49:22;101488.00;;;11.39;57.57
68822;BME280;55834;50.870;4.606;2023-05-29T00:51:51;101500.84;;;10.61;59.86
68822;BME280;55834;50.870;4.606;2023-05-29T00:54:23;101493.31;;;10.89;59.47
68822;BME280;55834;50.870;4.606;2023-05-29T00:56:51;101496.69;;;10.42;60.69
68822;BME280;55834;50.870;4.606;2023-05-29T00:59:17;101499.06;;;10.61;60.07
68822;BME280;55834;50.870;4.606;2023-05-29T01:01:47;101487.78;;;10.52;60.92
68822;BME280;55834;50.870;4.606;2023-05-29T01:04:13;101502.41;;;10.73;60.05
68822;BME280;55834;50.870;4.606;2023-05-29T01:06:40;101496.16;;;11.26;58.29
68822;BME280;55834;50.870;4.606;2023-05-29T01:09:06;101496.47;;;11.55;57.26
68822;BME280;55834;50.870;4.606;2023-05-29T01:14:06;101507.06;;;10.57;60.83
68822;BME280;55834;50.870;4.606;2023-05-29T01:16:44;101512.66;;;9.70;63.37
68822;BME280;55834;50.870;4.606;2023-05-29T01:21:59;101525.28;;;9.42;64.34
68822;BME280;55834;50.870;4.606;2023-05-29T01:24:37;101522.97;;;9.10;66.24
68822;BME280;55834;50.870;4.606;2023-05-29T01:27:10;101522.00;;;9.17;65.52
68822;BME280;55834;50.870;4.606;2023-05-29T01:29:37;101517.63;;;9.18;66.02
68822;BME280;55834;50.870;4.606;2023-05-29T01:32:04;101515.97;;;9.88;63.98
68822;BME280;55834;50.870;4.606;2023-05-29T01:34:30;101519.25;;;8.22;70.17
68822;BME280;55834;50.870;4.606;2023-05-29T01:36:55;101526.44;;;9.15;66.45
68822;BME280;55834;50.870;4.606;2023-05-29T01:39:21;101525.66;;;9.02;67.23
68822;BME280;55834;50.870;4.606;2023-05-29T01:41:47;101516.13;;;9.72;64.87
68822;BME280;55834;50.870;4.606;2023-05-29T01:44:13;101519.41;;;9.93;63.23
68822;BME280;55834;50.870;4.606;2023-05-29T01:46:43;101550.47;;;8.78;68.21
68822;BME280;55834;50.870;4.606;2023-05-29T01:49:09;101533.00;;;8.67;69.41
68822;BME280;55834;50.870;4.606;2023-05-29T01:51:36;101532.25;;;9.48;65.94
68822;BME280;55834;50.870;4.606;2023-05-29T01:54:02;101530.34;;;9.61;64.59
68822;BME280;55834;50.870;4.606;2023-05-29T01:56:28;101532.03;;;8.78;67.81
68822;BME280;55834;50.870;4.606;2023-05-29T01:58:55;101544.34;;;8.75;68.01
68822;BME280;55834;50.870;4.606;2023-05-29T02:01:22;101532.63;;;9.10;66.73
68822;BME280;55834;50.870;4.606;2023-05-29T02:03:47;101535.06;;;9.28;66.56
68822;BME280;55834;50.870;4.606;2023-05-29T02:06:13;101539.66;;;9.08;66.78
68822;BME280;55834;50.870;4.606;2023-05-29T02:08:38;101539.63;;;9.11;66.72
68822;BME280;55834;50.870;4.606;2023-05-29T02:11:04;101542.25;;;9.92;63.74
68822;BME280;55834;50.870;4.606;2023-05-29T02:13:29;101537.31;;;9.68;63.90
68822;BME280;55834;50.870;4.606;2023-05-29T02:15:54;101537.34;;;9.63;65.09
68822;BME280;55834;50.870;4.606;2023-05-29T02:18:20;101542.81;;;9.49;65.24
68822;BME280;55834;50.870;4.606;2023-05-29T02:20:46;101544.53;;;8.47;68.50
68822;BME280;55834;50.870;4.606;2023-05-29T02:23:11;101537.75;;;9.26;66.70
68822;BME280;55834;50.870;4.606;2023-05-29T02:25:37;101548.56;;;8.94;66.86
68822;BME280;55834;50.870;4.606;2023-05-29T02:28:03;101546.88;;;8.86;66.44
68822;BME280;55834;50.870;4.606;2023-05-29T02:30:29;101531.81;;;9.00;66.29
68822;BME280;55834;50.870;4.606;2023-05-29T02:32:55;101537.34;;;8.71;68.73
68822;BME280;55834;50.870;4.606;2023-05-29T02:35:20;101536.94;;;9.17;66.32
68822;BME280;55834;50.870;4.606;2023-05-29T02:37:48;101539.41;;;9.38;64.18
68822;BME280;55834;50.870;4.606;2023-05-29T02:40:14;101551.81;;;8.05;67.64
68822;BME280;55834;50.870;4.606;2023-05-29T02:42:39;101543.09;;;7.88;69.64
68822;BME280;55834;50.870;4.606;2023-05-29T02:45:05;101540.81;;;8.76;65.76
68822;BME280;55834;50.870;4.606;2023-05-29T02:47:31;101539.81;;;8.92;64.66
68822;BME280;55834;50.870;4.606;2023-05-29T02:49:56;101538.69;;;7.95;67.32
68822;BME280;55834;50.870;4.606;2023-05-29T02:52:21;101532.13;;;8.66;65.48
68822;BME280;55834;50.870;4.606;2023-05-29T02:54:48;101534.38;;;9.11;63.27
68822;BME280;55834;50.870;4.606;2023-05-29T02:57:14;101529.91;;;7.97;66.90
68822;BME280;55834;50.870;4.606;2023-05-29T02:59:39;101530.75;;;8.02;66.80
68822;BME280;55834;50.870;4.606;2023-05-29T03:02:04;101536.78;;;8.24;65.80
68822;BME280;55834;50.870;4.606;2023-05-29T03:04:31;101528.88;;;8.29;65.82
68822;BME280;55834;50.870;4.606;2023-05-29T03:06:57;101537.16;;;8.95;62.47
68822;BME280;55834;50.870;4.606;2023-05-29T03:09:22;101536.03;;;7.99;65.82
68822;BME280;55834;50.870;4.606;2023-05-29T03:11:48;101535.97;;;8.14;65.91
68822;BME280;55834;50.870;4.606;2023-05-29T03:14:15;101539.81;;;6.98;69.52
68822;BME280;55834;50.870;4.606;2023-05-29T03:16:41;101545.81;;;7.53;67.19
68822;BME280;55834;50.870;4.606;2023-05-29T03:19:07;101551.84;;;7.84;65.13
68822;BME280;55834;50.870;4.606;2023-05-29T03:21:33;101556.25;;;7.83;66.33
68822;BME280;55834;50.870;4.606;2023-05-29T03:23:59;101552.06;;;7.24;68.49
68822;BME280;55834;50.870;4.606;2023-05-29T03:26:25;101563.44;;;6.69;69.59
68822;BME280;55834;50.870;4.606;2023-05-29T03:28:51;101550.88;;;8.16;64.38
68822;BME280;55834;50.870;4.606;2023-05-29T03:31:17;101550.91;;;7.99;64.54
68822;BME280;55834;50.870;4.606;2023-05-29T03:33:42;101547.00;;;8.72;61.94
68822;BME280;55834;50.870;4.606;2023-05-29T03:36:08;101551.81;;;7.98;64.00
68822;BME280;55834;50.870;4.606;2023-05-29T03:38:33;101556.34;;;7.62;64.26
68822;BME280;55834;50.870;4.606;2023-05-29T03:40:58;101558.13;;;7.46;64.79
68822;BME280;55834;50.870;4.606;2023-05-29T03:43:24;101563.44;;;6.91;66.53
68822;BME280;55834;50.870;4.606;2023-05-29T03:45:49;101554.53;;;7.72;64.65
68822;BME280;55834;50.870;4.606;2023-05-29T03:48:15;101550.84;;;8.19;62.62
68822;BME280;55834;50.870;4.606;2023-05-29T03:50:40;101547.31;;;8.29;61.22
68822;BME280;55834;50.870;4.606;2023-05-29T03:53:06;101555.19;;;8.29;61.07
68822;BME280;55834;50.870;4.606;2023-05-29T03:55:31;101566.69;;;7.99;62.20
68822;BME280;55834;50.870;4.606;2023-05-29T03:57:57;101567.59;;;7.90;62.86
68822;BME280;55834;50.870;4.606;2023-05-29T04:00:22;101570.63;;;8.81;59.40
68822;BME280;55834;50.870;4.606;2023-05-29T04:02:47;101589.63;;;7.52;61.84
68822;BME280;55834;50.870;4.606;2023-05-29T04:05:13;101586.19;;;6.92;65.27
68822;BME280;55834;50.870;4.606;2023-05-29T04:07:38;101580.00;;;7.43;62.55
68822;BME280;55834;50.870;4.606;2023-05-29T04:10:05;101583.53;;;7.18;64.04
68822;BME280;55834;50.870;4.606;2023-05-29T04:12:31;101591.44;;;6.70;64.83
68822;BME280;55834;50.870;4.606;2023-05-29T04:14:57;101591.41;;;7.47;62.43
68822;BME280;55834;50.870;4.606;2023-05-29T04:17:23;101606.25;;;7.68;61.32
68822;BME280;55834;50.870;4.606;2023-05-29T04:19:48;101601.06;;;6.97;63.82
68822;BME280;55834;50.870;4.606;2023-05-29T04:22:14;101601.09;;;7.13;62.92
68822;BME280;55834;50.870;4.606;2023-05-29T04:24:40;101608.78;;;7.99;61.28
68822;BME280;55834;50.870;4.606;2023-05-29T04:27:07;101607.06;;;7.88;60.72
68822;BME280;55834;50.870;4.606;2023-05-29T04:29:34;101621.06;;;7.92;59.58
68822;BME280;55834;50.870;4.606;2023-05-29T04:32:00;101614.94;;;7.95;59.32
68822;BME280;55834;50.870;4.606;2023-05-29T04:34:29;101614.91;;;7.93;59.38
68822;BME280;55834;50.870;4.606;2023-05-29T04:36:56;101625.56;;;6.92;62.64
68822;BME280;55834;50.870;4.606;2023-05-29T04:39:23;101629.81;;;8.14;59.70
68822;BME280;55834;50.870;4.606;2023-05-29T04:41:49;101623.69;;;7.87;59.50
68822;BME280;55834;50.870;4.606;2023-05-29T04:44:15;101624.56;;;8.08;59.56
68822;BME280;55834;50.870;4.606;2023-05-29T04:46:40;101629.09;;;7.31;61.24
68822;BME280;55834;50.870;4.606;2023-05-29T04:49:09;101620.00;;;8.42;58.37
68822;BME280;55834;50.870;4.606;2023-05-29T04:51:35;101618.31;;;8.30;58.30
68822;BME280;55834;50.870;4.606;2023-05-29T04:54:01;101628.06;;;8.02;59.53
68822;BME280;55834;50.870;4.606;2023-05-29T04:56:27;101622.28;;;8.97;57.00
68822;BME280;55834;50.870;4.606;2023-05-29T04:58:53;101634.44;;;9.18;54.97
68822;BME280;55834;50.870;4.606;2023-05-29T05:01:18;101630.28;;;8.85;56.93
68822;BME280;55834;50.870;4.606;2023-05-29T05:03:44;101634.00;;;8.55;58.06
68822;BME280;55834;50.870;4.606;2023-05-29T05:06:10;101644.13;;;9.09;56.43
68822;BME280;55834;50.870;4.606;2023-05-29T05:08:36;101649.22;;;7.16;61.45
68822;BME280;55834;50.870;4.606;2023-05-29T05:11:02;101648.34;;;7.20;62.30
68822;BME280;55834;50.870;4.606;2023-05-29T05:13:28;101654.31;;;8.21;58.93
68822;BME280;55834;50.870;4.606;2023-05-29T05:15:53;101637.47;;;8.60;57.00
68822;BME280;55834;50.870;4.606;2023-05-29T05:18:19;101640.91;;;8.74;57.41
68822;BME280;55834;50.870;4.606;2023-05-29T05:20:45;101640.84;;;8.84;57.06
68822;BME280;55834;50.870;4.606;2023-05-29T05:23:10;101647.09;;;8.59;56.30
68822;BME280;55834;50.870;4.606;2023-05-29T05:25:36;101659.66;;;9.48;55.02
68822;BME280;55834;50.870;4.606;2023-05-29T05:28:03;101652.94;;;9.08;55.61
68822;BME280;55834;50.870;4.606;2023-05-29T05:30:29;101666.53;;;8.40;57.10
68822;BME280;55834;50.870;4.606;2023-05-29T05:32:54;101659.63;;;7.96;59.22
68822;BME280;55834;50.870;4.606;2023-05-29T05:35:21;101665.00;;;7.27;61.26
68822;BME280;55834;50.870;4.606;2023-05-29T05:37:46;101654.25;;;8.36;58.09
68822;BME280;55834;50.870;4.606;2023-05-29T05:40:12;101663.31;;;9.26;55.44
68822;BME280;55834;50.870;4.606;2023-05-29T05:42:37;101662.63;;;10.03;53.31
68822;BME280;55834;50.870;4.606;2023-05-29T05:45:03;101665.38;;;8.86;55.82
68822;BME280;55834;50.870;4.606;2023-05-29T05:47:29;101661.91;;;8.82;55.54
68822;BME280;55834;50.870;4.606;2023-05-29T05:49:54;101673.72;;;7.64;60.38
68822;BME280;55834;50.870;4.606;2023-05-29T05:52:21;101676.19;;;8.32;58.96
68822;BME280;55834;50.870;4.606;2023-05-29T05:54:46;101669.25;;;9.59;54.91
68822;BME280;55834;50.870;4.606;2023-05-29T05:57:12;101670.75;;;9.81;56.45
68822;BME280;55834;50.870;4.606;2023-05-29T05:59:37;101683.16;;;8.42;58.40
68822;BME280;55834;50.870;4.606;2023-05-29T06:02:02;101670.69;;;9.89;53.95
68822;BME280;55834;50.870;4.606;2023-05-29T06:04:29;101675.31;;;10.44;52.84
68822;BME280;55834;50.870;4.606;2023-05-29T06:06:54;101678.72;;;9.75;54.02
68822;BME280;55834;50.870;4.606;2023-05-29T06:09:20;101683.63;;;9.16;56.07
68822;BME280;55834;50.870;4.606;2023-05-29T06:11:46;101680.34;;;9.90;54.30
68822;BME280;55834;50.870;4.606;2023-05-29T06:14:13;101682.28;;;8.45;58.05
68822;BME280;55834;50.870;4.606;2023-05-29T06:16:38;101670.47;;;9.13;57.07
68822;BME280;55834;50.870;4.606;2023-05-29T06:19:03;101693.69;;;8.42;57.75
68822;BME280;55834;50.870;4.606;2023-05-29T06:21:29;101675.75;;;9.10;57.92
68822;BME280;55834;50.870;4.606;2023-05-29T06:23:55;101682.13;;;9.88;55.66
68822;BME280;55834;50.870;4.606;2023-05-29T06:26:21;101670.03;;;10.46;52.73
68822;BME280;55834;50.870;4.606;2023-05-29T06:28:46;101660.00;;;11.28;51.79
68822;BME280;55834;50.870;4.606;2023-05-29T06:31:11;101668.00;;;11.26;50.89
68822;BME280;55834;50.870;4.606;2023-05-29T06:33:37;101661.81;;;11.77;51.51
68822;BME280;55834;50.870;4.606;2023-05-29T06:36:03;101668.88;;;10.68;51.74
68822;BME280;55834;50.870;4.606;2023-05-29T06:38:28;101674.94;;;10.73;51.68
68822;BME280;55834;50.870;4.606;2023-05-29T06:40:54;101669.03;;;10.57;52.17
68822;BME280;55834;50.870;4.606;2023-05-29T06:43:19;101678.56;;;9.92;53.37
68822;BME280;55834;50.870;4.606;2023-05-29T06:45:47;101697.75;;;10.08;53.34
68822;BME280;55834;50.870;4.606;2023-05-29T06:48:13;101691.00;;;8.53;57.24
68822;BME280;55834;50.870;4.606;2023-05-29T06:50:38;101695.16;;;10.05;53.52
68822;BME280;55834;50.870;4.606;2023-05-29T06:53:04;101699.75;;;9.83;53.69
68822;BME280;55834;50.870;4.606;2023-05-29T06:55:30;101689.03;;;9.98;54.10
68822;BME280;55834;50.870;4.606;2023-05-29T06:57:55;101677.81;;;11.17;51.16
68822;BME280;55834;50.870;4.606;2023-05-29T07:00:21;101695.59;;;11.07;50.83
68822;BME280;55834;50.870;4.606;2023-05-29T07:02:46;101702.88;;;10.20;52.59
68822;BME280;55834;50.870;4.606;2023-05-29T07:05:11;101689.59;;;10.97;51.47
68822;BME280;55834;50.870;4.606;2023-05-29T07:07:37;101692.19;;;10.99;50.50
68822;BME280;55834;50.870;4.606;2023-05-29T07:10:02;101693.34;;;10.81;51.75
68822;BME280;55834;50.870;4.606;2023-05-29T07:12:28;101671.72;;;11.15;52.43
68822;BME280;55834;50.870;4.606;2023-05-29T07:14:53;101685.22;;;10.95;51.83
68822;BME280;55834;50.870;4.606;2023-05-29T07:17:18;101682.31;;;10.51;52.15
68822;BME280;55834;50.870;4.606;2023-05-29T07:19:44;101678.66;;;11.20;52.36
68822;BME280;55834;50.870;4.606;2023-05-29T07:22:09;101679.75;;;11.05;50.95
68822;BME280;55834;50.870;4.606;2023-05-29T07:24:35;101696.41;;;9.67;54.05
68822;BME280;55834;50.870;4.606;2023-05-29T07:27:00;101691.81;;;9.87;53.99
68822;BME280;55834;50.870;4.606;2023-05-29T07:29:26;101690.34;;;9.59;54.51
68822;BME280;55834;50.870;4.606;2023-05-29T07:31:51;101671.66;;;11.18;51.96
68822;BME280;55834;50.870;4.606;2023-05-29T07:34:17;101709.31;;;9.96;52.83
68822;BME280;55834;50.870;4.606;2023-05-29T07:37:02;101684.44;;;11.44;52.04
68822;BME280;55834;50.870;4.606;2023-05-29T07:39:29;101685.44;;;11.37;50.58
68822;BME280;55834;50.870;4.606;2023-05-29T07:41:54;101699.81;;;10.58;51.47
68822;BME280;55834;50.870;4.606;2023-05-29T07:44:20;101696.63;;;10.29;52.58
68822;BME280;55834;50.870;4.606;2023-05-29T07:46:45;101684.81;;;10.60;52.44
68822;BME280;55834;50.870;4.606;2023-05-29T07:49:11;101697.53;;;10.96;51.41
68822;BME280;55834;50.870;4.606;2023-05-29T07:51:36;101698.75;;;9.96;53.80
68822;BME280;55834;50.870;4.606;2023-05-29T07:54:02;101708.91;;;10.31;52.19
68822;BME280;55834;50.870;4.606;2023-05-29T07:56:27;101683.63;;;10.81;50.82
68822;BME280;55834;50.870;4.606;2023-05-29T07:58:53;101693.34;;;10.81;50.51
68822;BME280;55834;50.870;4.606;2023-05-29T08:01:20;101702.69;;;9.49;55.89
68822;BME280;55834;50.870;4.606;2023-05-29T08:03:46;101683.78;;;10.72;52.20
68822;BME280;55834;50.870;4.606;2023-05-29T08:06:12;101678.25;;;10.89;52.36
68822;BME280;55834;50.870;4.606;2023-05-29T08:08:37;101679.22;;;11.39;50.66
68822;BME280;55834;50.870;4.606;2023-05-29T08:11:03;101696.72;;;10.91;51.87
68822;BME280;55834;50.870;4.606;2023-05-29T08:13:29;101688.94;;;11.37;49.94
68822;BME280;55834;50.870;4.606;2023-05-29T08:15:55;101684.00;;;11.16;51.00
68822;BME280;55834;50.870;4.606;2023-05-29T08:18:21;101700.53;;;11.28;51.62
68822;BME280;55834;50.870;4.606;2023-05-29T08:20:46;101716.88;;;10.96;50.69
68822;BME280;55834;50.870;4.606;2023-05-29T08:23:11;101700.53;;;11.28;49.96
68822;BME280;55834;50.870;4.606;2023-05-29T08:25:37;101702.38;;;11.25;50.31
68822;BME280;55834;50.870;4.606;2023-05-29T08:28:02;101711.66;;;10.21;52.90
68822;BME280;55834;50.870;4.606;2023-05-29T08:30:27;101709.97;;;10.89;52.41
68822;BME280;55834;50.870;4.606;2023-05-29T08:32:53;101694.06;;;10.91;51.59
68822;BME280;55834;50.870;4.606;2023-05-29T08:35:18;101688.72;;;11.51;50.91
68822;BME280;55834;50.870;4.606;2023-05-29T08:37:44;101685.47;;;11.86;50.91
68822;BME280;55834;50.870;4.606;2023-05-29T08:40:10;101693.09;;;11.52;50.02
68822;BME280;55834;50.870;4.606;2023-05-29T08:42:42;101688.53;;;12.10;49.79
68822;BME280;55834;50.870;4.606;2023-05-29T08:45:13;101689.38;;;12.13;49.10
68822;BME280;55834;50.870;4.606;2023-05-29T08:47:40;101698.56;;;11.95;49.03
68822;BME280;55834;50.870;4.606;2023-05-29T08:50:06;101694.06;;;11.48;48.85
68822;BME280;55834;50.870;4.606;2023-05-29T08:52:34;101704.22;;;11.76;50.08
68822;BME280;55834;50.870;4.606;2023-05-29T08:55:01;101701.31;;;11.88;49.34
68822;BME280;55834;50.870;4.606;2023-05-29T08:57:28;101716.56;;;12.22;48.16
68822;BME280;55834;50.870;4.606;2023-05-29T08:59:55;101705.66;;;12.37;49.05
68822;BME280;55834;50.870;4.606;2023-05-29T09:02:21;101710.31;;;11.78;49.14
68822;BME280;55834;50.870;4.606;2023-05-29T09:04:47;101713.88;;;12.25;48.45
68822;BME280;55834;50.870;4.606;2023-05-29T09:07:18;101708.13;;;12.45;49.45
68822;BME280;55834;50.870;4.606;2023-05-29T09:09:47;101709.06;;;11.99;49.25
68822;BME280;55834;50.870;4.606;2023-05-29T09:12:13;101726.31;;;11.71;50.82
68822;BME280;55834;50.870;4.606;2023-05-29T09:14:41;101711.59;;;12.05;48.92
68822;BME280;55834;50.870;4.606;2023-05-29T09:17:08;101711.78;;;13.21;46.91
68822;BME280;55834;50.870;4.606;2023-05-29T09:19:35;101710.78;;;13.25;46.91
68822;BME280;55834;50.870;4.606;2023-05-29T09:24:32;101708.00;;;12.93;47.00
68822;BME280;55834;50.870;4.606;2023-05-29T09:27:01;101706.00;;;12.65;48.51
68822;BME280;55834;50.870;4.606;2023-05-29T09:29:31;101729.44;;;12.38;49.38
68822;BME280;55834;50.870;4.606;2023-05-29T09:31:58;101713.47;;;13.24;46.88
68822;BME280;55834;50.870;4.606;2023-05-29T09:34:24;101735.03;;;12.25;47.94
68822;BME280;55834;50.870;4.606;2023-05-29T09:36:52;101727.28;;;12.99;47.50
68822;BME280;55834;50.870;4.606;2023-05-29T09:39:17;101732.88;;;12.45;48.44
68822;BME280;55834;50.870;4.606;2023-05-29T09:41:44;101716.84;;;13.30;46.31
68822;BME280;55834;50.870;4.606;2023-05-29T09:44:13;101731.63;;;13.03;47.03
68822;BME280;55834;50.870;4.606;2023-05-29T09:46:42;101724.53;;;13.05;46.16
68822;BME280;55834;50.870;4.606;2023-05-29T09:49:11;101718.47;;;13.36;47.41
68822;BME280;55834;50.870;4.606;2023-05-29T09:51:36;101720.81;;;13.13;46.83
68822;BME280;55834;50.870;4.606;2023-05-29T09:54:18;101729.22;;;12.51;47.31
68822;BME280;55834;50.870;4.606;2023-05-29T09:56:44;101726.19;;;12.71;46.75
68822;BME280;55834;50.870;4.606;2023-05-29T09:59:13;101728.72;;;11.84;50.23
68822;BME280;55834;50.870;4.606;2023-05-29T10:01:41;101709.22;;;11.89;49.45
68822;BME280;55834;50.870;4.606;2023-05-29T10:04:10;101721.75;;;12.26;49.45
68822;BME280;55834;50.870;4.606;2023-05-29T10:06:37;101714.66;;;13.48;45.57
68822;BME280;55834;50.870;4.606;2023-05-29T10:09:06;101724.72;;;13.71;46.97
68822;BME280;55834;50.870;4.606;2023-05-29T10:11:35;101720.75;;;13.16;46.36
68822;BME280;55834;50.870;4.606;2023-05-29T10:14:03;101711.00;;;13.88;44.03
68822;BME280;55834;50.870;4.606;2023-05-29T10:16:32;101716.00;;;13.28;46.23
68822;BME280;55834;50.870;4.606;2023-05-29T10:19:01;101717.06;;;13.59;45.50
68822;BME280;55834;50.870;4.606;2023-05-29T10:21:32;101697.22;;;14.06;45.26
68822;BME280;55834;50.870;4.606;2023-05-29T10:24:05;101710.78;;;13.25;45.51
68822;BME280;55834;50.870;4.606;2023-05-29T10:26:34;101709.66;;;13.36;45.84
68822;BME280;55834;50.870;4.606;2023-05-29T10:31:48;101712.91;;;12.72;47.00
68822;BME280;55834;50.870;4.606;2023-05-29T10:34:25;101710.06;;;13.90;45.69
68822;BME280;55834;50.870;4.606;2023-05-29T10:37:05;101695.28;;;15.30;43.85
68822;BME280;55834;50.870;4.606;2023-05-29T10:39:33;101713.94;;;14.41;42.33
68822;BME280;55834;50.870;4.606;2023-05-29T10:41:59;101710.06;;;13.90;43.13
68822;BME280;55834;50.870;4.606;2023-05-29T10:44:44;101700.50;;;14.47;43.92
68822;BME280;55834;50.870;4.606;2023-05-29T10:47:10;101705.13;;;15.00;42.78
68822;BME280;55834;50.870;4.606;2023-05-29T10:49:37;101727.41;;;14.66;43.11
68822;BME280;55834;50.870;4.606;2023-05-29T10:52:04;101709.75;;;14.65;42.37
68822;BME280;55834;50.870;4.606;2023-05-29T10:54:40;101710.09;;;13.53;43.51
68822;BME280;55834;50.870;4.606;2023-05-29T10:57:07;101704.63;;;14.26;43.69
68822;BME280;55834;50.870;4.606;2023-05-29T10:59:37;101698.75;;;14.48;42.95
68822;BME280;55834;50.870;4.606;2023-05-29T11:02:04;101704.13;;;13.45;44.06
68822;BME280;55834;50.870;4.606;2023-05-29T11:04:31;101716.59;;;13.77;43.54
68822;BME280;55834;50.870;4.606;2023-05-29T11:06:58;101701.06;;;13.96;44.93
68822;BME280;55834;50.870;4.606;2023-05-29T11:09:32;101699.50;;;14.20;44.34
68822;BME280;55834;50.870;4.606;2023-05-29T11:12:13;101712.38;;;14.34;43.38
68822;BME280;55834;50.870;4.606;2023-05-29T11:15:11;101701.56;;;14.10;42.98
68822;BME280;55834;50.870;4.606;2023-05-29T11:20:09;101713.63;;;14.20;42.06
68822;BME280;55834;50.870;4.606;2023-05-29T11:25:05;101689.00;;;14.47;41.48
68822;BME280;55834;50.870;4.606;2023-05-29T11:27:31;101688.13;;;14.15;42.79
68822;BME280;55834;50.870;4.606;2023-05-29T11:29:57;101706.94;;;13.39;44.02
68822;BME280;55834;50.870;4.606;2023-05-29T11:32:25;101699.63;;;14.15;43.46
68822;BME280;55834;50.870;4.606;2023-05-29T11:34:53;101683.03;;;13.74;43.73
68822;BME280;55834;50.870;4.606;2023-05-29T11:37:22;101691.63;;;13.48;44.78
68822;BME280;55834;50.870;4.606;2023-05-29T11:39:48;101683.75;;;15.03;41.59
68822;BME280;55834;50.870;4.606;2023-05-29T11:42:15;101687.88;;;15.40;40.77
68822;BME280;55834;50.870;4.606;2023-05-29T11:44:40;101680.78;;;15.12;41.17
68822;BME280;55834;50.870;4.606;2023-05-29T11:47:07;101669.94;;;14.92;43.53
68822;BME280;55834;50.870;4.606;2023-05-29T11:49:36;101687.03;;;14.83;42.23
68822;BME280;55834;50.870;4.606;2023-05-29T11:52:20;101676.72;;;14.42;42.47
68822;BME280;55834;50.870;4.606;2023-05-29T11:54:49;101674.44;;;14.30;43.55
68822;BME280;55834;50.870;4.606;2023-05-29T11:57:20;101668.13;;;14.92;42.11
68822;BME280;55834;50.870;4.606;2023-05-29T11:59:47;101675.25;;;15.46;41.50
68822;BME280;55834;50.870;4.606;2023-05-29T12:02:13;101686.38;;;14.76;40.80
68822;BME280;55834;50.870;4.606;2023-05-29T12:04:39;101666.56;;;15.13;41.61
68822;BME280;55834;50.870;4.606;2023-05-29T12:07:19;101676.81;;;14.39;43.29
68822;BME280;55834;50.870;4.606;2023-05-29T12:09:45;101659.81;;;15.29;42.18
68822;BME280;55834;50.870;4.606;2023-05-29T12:12:10;101672.50;;;15.74;40.05
68822;BME280;55834;50.870;4.606;2023-05-29T12:14:36;101669.56;;;16.07;38.66
68822;BME280;55834;50.870;4.606;2023-05-29T12:17:01;101653.66;;;16.53;39.20
68822;BME280;55834;50.870;4.606;2023-05-29T12:19:27;101662.09;;;16.86;37.78
68822;BME280;55834;50.870;4.606;2023-05-29T12:21:53;101660.00;;;16.27;37.92
68822;BME280;55834;50.870;4.606;2023-05-29T12:24:19;101661.38;;;16.37;39.24
68822;BME280;55834;50.870;4.606;2023-05-29T12:26:44;101653.84;;;17.56;36.24
68822;BME280;55834;50.870;4.606;2023-05-29T12:29:12;101659.91;;;17.19;37.55
68822;BME280;55834;50.870;4.606;2023-05-29T12:31:40;101664.94;;;14.81;40.84
68822;BME280;55834;50.870;4.606;2023-05-29T12:34:11;101663.00;;;14.86;40.55
68822;BME280;55834;50.870;4.606;2023-05-29T12:36:41;101667.19;;;15.74;38.95
68822;BME280;55834;50.870;4.606;2023-05-29T12:39:07;101672.84;;;16.14;38.06
68822;BME280;55834;50.870;4.606;2023-05-29T12:41:36;101667.03;;;14.71;41.56
68822;BME280;55834;50.870;4.606;2023-05-29T12:44:04;101663.25;;;14.78;42.04
68822;BME280;55834;50.870;4.606;2023-05-29T12:46:41;101653.44;;;16.10;38.37
68822;BME280;55834;50.870;4.606;2023-05-29T12:49:15;101667.78;;;15.57;39.22
68822;BME280;55834;50.870;4.606;2023-05-29T12:51:42;101668.63;;;15.58;39.46
68822;BME280;55834;50.870;4.606;2023-05-29T12:54:11;101660.53;;;15.08;39.77
68822;BME280;55834;50.870;4.606;2023-05-29T12:56:37;101668.34;;;15.91;40.03
68822;BME280;55834;50.870;4.606;2023-05-29T12:59:05;101674.06;;;15.00;41.46
68822;BME280;55834;50.870;4.606;2023-05-29T13:01:32;101660.16;;;15.97;40.07
68822;BME280;55834;50.870;4.606;2023-05-29T13:03:57;101663.91;;;16.40;39.05
68822;BME280;55834;50.870;4.606;2023-05-29T13:06:23;101681.97;;;15.83;38.83
68822;BME280;55834;50.870;4.606;2023-05-29T13:08:48;101667.38;;;15.93;38.12